createdAt,value
2023-03-13T00:00:11.040Z,43.10
2023-03-13T00:05:14.617Z,42.80
2023-03-13T00:10:17.966Z,42.50
2023-03-13T00:15:22.488Z,42.50
2023-03-13T00:20:25.622Z,42.70
2023-03-13T00:25:28.787Z,42.40
2023-03-13T00:30:33.378Z,42.20
2023-03-13T00:35:36.793Z,42.30
2023-03-13T00:40:39.903Z,42.00
2023-03-13T00:45:44.427Z,42.00
2023-03-13T00:50:47.577Z,42.20
2023-03-13T00:55:56.255Z,42.00
2023-03-13T01:01:08.200Z,42.30
2023-03-13T01:06:13.067Z,42.30
2023-03-13T01:11:18.359Z,42.00
2023-03-13T01:16:23.921Z,42.00
2023-03-13T01:21:27.514Z,42.20
2023-03-13T01:26:30.672Z,41.90
2023-03-13T01:31:36.945Z,42.20
2023-03-13T01:36:40.360Z,42.30
2023-03-13T01:41:43.766Z,42.30
2023-03-13T01:46:48.325Z,42.30
2023-03-13T01:51:54.971Z,42.40
2023-03-13T01:57:02.260Z,42.40
2023-03-13T02:02:07.880Z,42.30
2023-03-13T02:07:14.787Z,42.40
2023-03-13T02:12:21.691Z,42.20
2023-03-13T02:17:27.799Z,42.20
2023-03-13T02:22:36.731Z,42.10
2023-03-13T02:27:41.697Z,42.00
2023-03-13T02:32:45.718Z,41.90
2023-03-13T02:37:53.174Z,41.60
2023-03-13T02:42:59.602Z,41.80
2023-03-13T02:48:02.738Z,41.70
2023-03-13T02:53:08.819Z,41.50
2023-03-13T02:58:13.337Z,41.80
2023-03-13T03:03:16.432Z,41.90
2023-03-13T03:08:19.525Z,41.70
2023-03-13T03:13:24.155Z,41.90
2023-03-13T03:18:27.257Z,42.10
2023-03-13T03:23:30.364Z,42.20
2023-03-13T03:28:34.946Z,42.20
2023-03-13T03:33:38.529Z,42.30
2023-03-13T03:38:42.471Z,41.80
2023-03-13T03:43:47.412Z,41.80
2023-03-13T03:48:50.517Z,41.90
2023-03-13T03:53:54.735Z,41.90
2023-03-13T03:58:59.243Z,41.80
2023-03-13T04:04:02.383Z,41.90
2023-03-13T04:09:05.578Z,41.70
2023-03-13T04:14:10.105Z,41.70
2023-03-13T04:19:13.216Z,42.00
2023-03-13T04:24:16.376Z,41.90
2023-03-13T04:29:20.831Z,42.00
2023-03-13T04:34:24.024Z,42.00
2023-03-13T04:39:27.114Z,42.00
2023-03-13T04:44:31.594Z,42.00
2023-03-13T04:49:35.055Z,42.00
2023-03-13T04:54:38.223Z,41.90
2023-03-13T04:59:42.698Z,41.80
2023-03-13T05:04:45.869Z,41.90
2023-03-13T05:09:49.056Z,41.70
2023-03-13T05:14:54.143Z,41.70
2023-03-13T05:19:57.590Z,41.80
2023-03-13T05:25:00.692Z,41.70
2023-03-13T05:30:06.117Z,41.80
2023-03-13T05:35:09.672Z,41.90
2023-03-13T05:40:13.740Z,41.80
2023-03-13T05:45:18.446Z,41.80
2023-03-13T05:50:21.532Z,41.80
2023-03-13T05:55:24.649Z,41.60
2023-03-13T06:00:29.339Z,41.60
2023-03-13T06:05:32.531Z,41.60
2023-03-13T06:10:35.678Z,41.60
2023-03-13T06:15:40.119Z,41.50
2023-03-13T06:20:44.296Z,41.70
2023-03-13T06:25:48.909Z,41.60
2023-03-13T06:30:53.412Z,41.70
2023-03-13T06:35:58.260Z,41.60
2023-03-13T06:41:01.602Z,41.70
2023-03-13T06:46:06.844Z,41.50
2023-03-13T06:51:13.430Z,41.50
2023-03-13T06:56:16.929Z,41.60
2023-03-13T07:01:21.498Z,41.70
2023-03-13T07:06:24.775Z,41.70
2023-03-13T07:11:28.086Z,41.70
2023-03-13T07:16:33.449Z,41.50
2023-03-13T07:21:36.762Z,41.60
2023-03-13T07:26:42.753Z,41.60
2023-03-13T07:31:53.143Z,41.60
2023-03-13T07:36:56.314Z,41.50
2023-03-13T07:42:00.470Z,41.50
2023-03-13T07:47:05.489Z,41.40
2023-03-13T07:52:08.747Z,41.50
2023-03-13T07:57:11.920Z,41.90
2023-03-13T08:02:16.996Z,42.00
2023-03-13T08:07:20.132Z,42.20
2023-03-13T08:12:23.240Z,42.30
2023-03-13T08:17:30.261Z,42.50
2023-03-13T08:22:33.335Z,42.60
2023-03-13T08:27:36.427Z,42.60
2023-03-13T08:32:41.361Z,42.90
2023-03-13T08:37:44.515Z,43.20
2023-03-13T08:42:47.629Z,43.20
2023-03-13T08:47:54.956Z,43.40
2023-03-13T08:52:58.092Z,43.40
2023-03-13T08:58:01.187Z,43.50
2023-03-13T09:03:05.781Z,44.00
2023-03-13T09:08:09.127Z,44.10
2023-03-13T09:13:12.579Z,44.20
2023-03-13T09:18:17.128Z,43.90
2023-03-13T09:23:21.219Z,44.00
2023-03-13T09:28:25.061Z,43.50
2023-03-13T09:33:29.622Z,42.90
2023-03-13T09:38:32.999Z,42.00
2023-03-13T09:43:43.581Z,41.80
2023-03-13T09:48:52.098Z,41.00
2023-03-13T09:53:59.750Z,40.20
2023-03-13T09:59:15.079Z,39.80
2023-03-13T10:04:31.576Z,39.80
2023-03-13T10:09:37.179Z,39.90
2023-03-13T10:14:45.559Z,41.00
2023-03-13T10:19:57.295Z,39.70
2023-03-13T10:25:04.445Z,39.70
2023-03-13T10:30:16.611Z,40.10
2023-03-13T10:35:26.284Z,40.00
2023-03-13T10:40:30.090Z,39.70
2023-03-13T10:45:36.659Z,40.10
2023-03-13T10:50:45.219Z,40.00
2023-03-13T10:55:49.002Z,38.90
2023-03-13T11:00:52.111Z,39.80
2023-03-13T11:06:01.432Z,39.60
2023-03-13T11:11:06.363Z,38.20
2023-03-13T11:16:19.327Z,39.10
2023-03-13T11:21:33.893Z,38.20
2023-03-13T11:26:40.126Z,38.60
2023-03-13T11:31:47.433Z,38.50
2023-03-13T11:36:56.647Z,37.80
2023-03-13T11:42:03.468Z,37.70
2023-03-13T11:47:28.535Z,37.40
2023-03-13T11:52:55.668Z,37.30
2023-03-13T11:58:12.287Z,36.20
2023-03-13T12:03:20.368Z,36.30
2023-03-13T12:08:30.758Z,36.40
2023-03-13T12:13:40.097Z,33.30
2023-03-13T12:18:45.401Z,34.80
2023-03-13T12:23:59.888Z,35.10
2023-03-13T12:29:10.237Z,34.70
2023-03-13T12:34:19.680Z,34.70
2023-03-13T12:39:33.709Z,34.10
2023-03-13T12:44:37.144Z,34.60
2023-03-13T12:50:16.448Z,35.50
2023-03-13T12:55:56.077Z,32.40
2023-03-13T13:01:03.820Z,34.30
2023-03-13T13:06:10.284Z,34.40
2023-03-13T13:11:50.309Z,33.90
2023-03-13T13:16:58.335Z,34.20
2023-03-13T13:22:38.600Z,34.70
2023-03-13T13:27:49.374Z,31.40
2023-03-13T13:32:54.168Z,32.40
2023-03-13T13:38:39.801Z,34.50
2023-03-13T13:43:45.605Z,33.60
2023-03-13T13:48:48.947Z,33.70
2023-03-13T13:53:56.777Z,34.20
2023-03-13T13:59:04.051Z,34.00
2023-03-13T14:04:16.606Z,33.40
2023-03-13T14:09:32.596Z,32.70
2023-03-13T14:14:37.036Z,31.80
2023-03-13T14:19:43.524Z,32.80
2023-03-13T14:24:58.427Z,32.40
2023-03-13T14:30:03.612Z,32.40
2023-03-13T14:35:09.223Z,32.50
2023-03-13T14:40:25.609Z,32.70
2023-03-13T14:45:32.392Z,31.80
2023-03-13T14:50:36.684Z,32.10
2023-03-13T14:55:41.149Z,32.30
2023-03-13T15:00:46.627Z,32.80
2023-03-13T15:05:51.755Z,32.00
2023-03-13T15:10:55.063Z,32.40
2023-03-13T15:16:00.375Z,32.60
2023-03-13T15:21:22.840Z,32.00
2023-03-13T15:26:26.598Z,31.30
2023-03-13T15:31:31.510Z,32.20
2023-03-13T15:36:34.632Z,31.70
2023-03-13T15:41:37.700Z,32.30
2023-03-13T15:46:42.249Z,32.20
2023-03-13T15:51:45.314Z,31.90
2023-03-13T15:56:48.868Z,32.20
2023-03-13T16:01:53.311Z,32.00
2023-03-13T16:06:56.398Z,31.60
2023-03-13T16:11:59.596Z,31.70
2023-03-13T16:17:05.514Z,32.10
2023-03-13T16:22:08.664Z,31.50
2023-03-13T16:27:16.840Z,32.30
2023-03-13T16:32:24.629Z,31.70
2023-03-13T16:37:27.804Z,32.00
2023-03-13T16:42:30.879Z,32.20
2023-03-13T16:47:35.971Z,31.80
2023-03-13T16:52:39.056Z,31.60
2023-03-13T16:57:42.162Z,31.90
2023-03-13T17:02:46.974Z,31.80
2023-03-13T17:07:52.305Z,31.60
2023-03-13T17:12:55.577Z,31.70
2023-03-13T17:18:00.412Z,31.70
2023-03-13T17:23:03.932Z,31.20
2023-03-13T17:28:07.133Z,31.20
2023-03-13T17:33:11.812Z,31.30
2023-03-13T17:38:15.024Z,31.20
2023-03-13T17:43:18.079Z,31.20
2023-03-13T17:48:22.590Z,31.20
2023-03-13T17:53:25.745Z,31.00
2023-03-13T17:58:28.824Z,31.30
2023-03-13T18:03:33.316Z,31.30
2023-03-13T18:08:36.518Z,31.00
2023-03-13T18:13:39.767Z,31.30
2023-03-13T18:18:44.474Z,31.40
2023-03-13T18:23:47.563Z,31.20
2023-03-13T18:28:51.123Z,31.40
2023-03-13T18:33:56.199Z,31.20
2023-03-13T18:38:59.699Z,31.10
2023-03-13T18:44:02.826Z,31.40
2023-03-13T18:49:12.182Z,31.30
2023-03-13T18:54:15.826Z,30.60
2023-03-13T18:59:21.833Z,31.10
2023-03-13T19:04:26.867Z,30.80
2023-03-13T19:09:43.191Z,30.70
2023-03-13T19:14:46.563Z,30.80
2023-03-13T19:19:51.018Z,30.60
2023-03-13T19:24:54.270Z,30.40
2023-03-13T19:29:57.434Z,31.60
2023-03-13T19:35:01.897Z,30.70
2023-03-13T19:40:07.034Z,30.30
2023-03-13T19:45:11.363Z,30.50
2023-03-13T19:50:19.961Z,30.70
2023-03-13T19:55:23.445Z,30.30
2023-03-13T20:00:28.424Z,30.50
2023-03-13T20:05:33.020Z,30.40
2023-03-13T20:10:36.266Z,30.20
2023-03-13T20:15:39.645Z,30.40
2023-03-13T20:20:44.109Z,30.30
2023-03-13T20:25:47.238Z,30.30
2023-03-13T20:30:51.826Z,30.50
2023-03-13T20:36:00.314Z,30.50
2023-03-13T20:41:04.166Z,30.10
2023-03-13T20:46:08.203Z,30.60
2023-03-13T20:51:13.237Z,30.50
2023-03-13T20:56:16.437Z,30.40
2023-03-13T21:01:20.001Z,30.50
2023-03-13T21:06:25.450Z,30.40
2023-03-13T21:11:29.695Z,30.20
2023-03-13T21:16:32.961Z,30.30
2023-03-13T21:21:37.616Z,30.20
2023-03-13T21:26:40.732Z,30.20
2023-03-13T21:31:43.958Z,30.00
2023-03-13T21:36:48.689Z,30.10
2023-03-13T21:41:52.361Z,30.20
2023-03-13T21:46:55.589Z,30.50
2023-03-13T21:52:00.372Z,30.60
2023-03-13T21:57:03.515Z,30.60
2023-03-13T22:02:06.921Z,30.80
2023-03-13T22:07:11.411Z,31.40
2023-03-13T22:12:14.584Z,31.90
2023-03-13T22:17:19.579Z,32.50
2023-03-13T22:22:24.050Z,32.60
2023-03-13T22:27:27.186Z,33.40
2023-03-13T22:32:31.335Z,33.50
2023-03-13T22:37:36.077Z,34.20
2023-03-13T22:42:39.443Z,34.00
2023-03-13T22:47:42.653Z,33.90
2023-03-13T22:52:47.402Z,34.10
2023-03-13T22:57:50.520Z,34.90
2023-03-13T23:02:54.714Z,34.70
2023-03-13T23:07:59.298Z,34.70
2023-03-13T23:13:02.445Z,35.20
2023-03-13T23:18:06.208Z,35.00
2023-03-13T23:23:10.851Z,35.40
2023-03-13T23:28:14.409Z,36.50
2023-03-13T23:33:17.492Z,36.00
2023-03-13T23:38:24.028Z,36.40
2023-03-13T23:43:27.149Z,37.30
2023-03-13T23:48:31.142Z,36.90
2023-03-13T23:53:38.233Z,37.00
2023-03-13T23:58:41.709Z,38.60
